sensor_id;sensor_type;location;lat;lon;timestamp;temperature;humidity
15386;DHT22;7791;47.246;9.648;2023-03-04T00:00:56;5.70;99.90
15386;DHT22;7791;47.246;9.648;2023-03-04T00:03:24;5.70;99.90
15386;DHT22;7791;47.246;9.648;2023-03-04T00:05:49;5.70;99.90
15386;DHT22;7791;47.246;9.648;2023-03-04T00:08:15;5.70;99.90
15386;DHT22;7791;47.246;9.648;2023-03-04T00:10:41;5.80;99.90
15386;DHT22;7791;47.246;9.648;2023-03-04T00:13:07;5.80;99.90
15386;DHT22;7791;47.246;9.648;2023-03-04T00:15:32;5.60;99.90
15386;DHT22;7791;47.246;9.648;2023-03-04T00:17:58;5.50;99.90
15386;DHT22;7791;47.246;9.648;2023-03-04T00:20:25;5.60;99.90
15386;DHT22;7791;47.246;9.648;2023-03-04T00:22:51;5.60;99.90
15386;DHT22;7791;47.246;9.648;2023-03-04T00:25:17;5.50;99.90
15386;DHT22;7791;47.246;9.648;2023-03-04T00:27:43;5.60;99.90
15386;DHT22;7791;47.246;9.648;2023-03-04T00:30:09;5.60;99.90
15386;DHT22;7791;47.246;9.648;2023-03-04T00:32:35;5.60;99.90
15386;DHT22;7791;47.246;9.648;2023-03-04T00:35:01;5.70;99.90
15386;DHT22;7791;47.246;9.648;2023-03-04T00:37:28;5.60;99.90
15386;DHT22;7791;47.246;9.648;2023-03-04T00:39:54;5.30;99.90
15386;DHT22;7791;47.246;9.648;2023-03-04T00:42:19;5.30;99.90
15386;DHT22;7791;47.246;9.648;2023-03-04T00:44:45;5.40;99.90
15386;DHT22;7791;47.246;9.648;2023-03-04T00:47:11;5.50;99.90
15386;DHT22;7791;47.246;9.648;2023-03-04T00:49:37;5.50;99.90
15386;DHT22;7791;47.246;9.648;2023-03-04T00:52:02;5.60;99.90
15386;DHT22;7791;47.246;9.648;2023-03-04T00:54:29;5.50;99.90
15386;DHT22;7791;47.246;9.648;2023-03-04T00:56:55;5.60;99.90
15386;DHT22;7791;47.246;9.648;2023-03-04T00:59:21;5.60;99.90
15386;DHT22;7791;47.246;9.648;2023-03-04T01:01:46;5.70;99.90
15386;DHT22;7791;47.246;9.648;2023-03-04T01:04:12;5.60;99.90
15386;DHT22;7791;47.246;9.648;2023-03-04T01:06:38;5.70;99.90
15386;DHT22;7791;47.246;9.648;2023-03-04T01:09:04;5.70;99.90
15386;DHT22;7791;47.246;9.648;2023-03-04T01:11:31;5.70;99.90
15386;DHT22;7791;47.246;9.648;2023-03-04T01:13:56;5.70;99.90
15386;DHT22;7791;47.246;9.648;2023-03-04T01:16:22;5.80;99.90
15386;DHT22;7791;47.246;9.648;2023-03-04T01:18:48;5.80;99.90
15386;DHT22;7791;47.246;9.648;2023-03-04T01:21:14;5.70;99.90
15386;DHT22;7791;47.246;9.648;2023-03-04T01:23:39;5.80;99.90
15386;DHT22;7791;47.246;9.648;2023-03-04T01:26:05;5.80;99.90
15386;DHT22;7791;47.246;9.648;2023-03-04T01:28:32;5.90;99.90
15386;DHT22;7791;47.246;9.648;2023-03-04T01:30:58;5.90;99.90
15386;DHT22;7791;47.246;9.648;2023-03-04T01:33:24;5.80;99.90
15386;DHT22;7791;47.246;9.648;2023-03-04T01:35:49;5.80;99.90
15386;DHT22;7791;47.246;9.648;2023-03-04T01:38:15;5.80;99.90
15386;DHT22;7791;47.246;9.648;2023-03-04T01:40:41;5.80;99.90
15386;DHT22;7791;47.246;9.648;2023-03-04T01:43:24;5.70;99.90
15386;DHT22;7791;47.246;9.648;2023-03-04T01:45:53;5.70;99.90
15386;DHT22;7791;47.246;9.648;2023-03-04T01:48:23;5.70;99.90
15386;DHT22;7791;47.246;9.648;2023-03-04T01:50:50;5.70;99.90
15386;DHT22;7791;47.246;9.648;2023-03-04T01:53:19;5.80;99.90
15386;DHT22;7791;47.246;9.648;2023-03-04T01:55:46;5.70;99.90
15386;DHT22;7791;47.246;9.648;2023-03-04T01:58:31;5.60;99.90
15386;DHT22;7791;47.246;9.648;2023-03-04T02:00:58;5.60;99.90
15386;DHT22;7791;47.246;9.648;2023-03-04T02:03:24;5.60;99.90
15386;DHT22;7791;47.246;9.648;2023-03-04T02:05:51;5.60;99.90
15386;DHT22;7791;47.246;9.648;2023-03-04T02:08:19;5.60;99.90
15386;DHT22;7791;47.246;9.648;2023-03-04T02:10:45;5.50;99.90
15386;DHT22;7791;47.246;9.648;2023-03-04T02:13:13;5.40;99.90
15386;DHT22;7791;47.246;9.648;2023-03-04T02:15:40;5.50;99.90
15386;DHT22;7791;47.246;9.648;2023-03-04T02:18:13;5.50;99.90
15386;DHT22;7791;47.246;9.648;2023-03-04T02:20:46;5.40;99.90
15386;DHT22;7791;47.246;9.648;2023-03-04T02:23:16;5.30;99.90
15386;DHT22;7791;47.246;9.648;2023-03-04T02:25:49;5.20;99.90
15386;DHT22;7791;47.246;9.648;2023-03-04T02:28:48;5.00;99.90
15386;DHT22;7791;47.246;9.648;2023-03-04T02:31:23;4.90;99.90
15386;DHT22;7791;47.246;9.648;2023-03-04T02:33:49;4.70;99.90
15386;DHT22;7791;47.246;9.648;2023-03-04T02:36:15;4.50;99.90
15386;DHT22;7791;47.246;9.648;2023-03-04T02:38:41;4.30;99.90
15386;DHT22;7791;47.246;9.648;2023-03-04T02:41:11;4.30;99.90
15386;DHT22;7791;47.246;9.648;2023-03-04T02:43:49;4.20;99.90
15386;DHT22;7791;47.246;9.648;2023-03-04T02:46:15;4.00;99.90
15386;DHT22;7791;47.246;9.648;2023-03-04T02:48:40;4.10;99.90
15386;DHT22;7791;47.246;9.648;2023-03-04T02:51:06;4.20;99.90
15386;DHT22;7791;47.246;9.648;2023-03-04T02:53:32;4.20;99.90
15386;DHT22;7791;47.246;9.648;2023-03-04T02:55:58;4.20;99.90
15386;DHT22;7791;47.246;9.648;2023-03-04T02:58:23;4.20;99.90
15386;DHT22;7791;47.246;9.648;2023-03-04T03:04:05;4.20;99.90
15386;DHT22;7791;47.246;9.648;2023-03-04T03:06:31;4.00;99.90
15386;DHT22;7791;47.246;9.648;2023-03-04T03:08:57;3.90;99.90
15386;DHT22;7791;47.246;9.648;2023-03-04T03:11:22;3.80;99.90
15386;DHT22;7791;47.246;9.648;2023-03-04T03:13:48;3.80;99.90
15386;DHT22;7791;47.246;9.648;2023-03-04T03:22:26;3.30;99.90
15386;DHT22;7791;47.246;9.648;2023-03-04T03:24:52;3.20;99.90
15386;DHT22;7791;47.246;9.648;2023-03-04T03:27:17;3.10;99.90
15386;DHT22;7791;47.246;9.648;2023-03-04T03:29:43;3.10;99.90
15386;DHT22;7791;47.246;9.648;2023-03-04T03:32:09;2.90;99.90
15386;DHT22;7791;47.246;9.648;2023-03-04T03:34:35;2.90;99.90
15386;DHT22;7791;47.246;9.648;2023-03-04T03:37:00;3.00;99.90
15386;DHT22;7791;47.246;9.648;2023-03-04T03:39:27;2.90;99.90
15386;DHT22;7791;47.246;9.648;2023-03-04T03:41:53;2.90;99.90
15386;DHT22;7791;47.246;9.648;2023-03-04T03:44:38;3.00;99.90
15386;DHT22;7791;47.246;9.648;2023-03-04T03:47:03;3.10;99.90
15386;DHT22;7791;47.246;9.648;2023-03-04T03:49:29;3.00;99.90
15386;DHT22;7791;47.246;9.648;2023-03-04T03:51:55;3.00;99.90
15386;DHT22;7791;47.246;9.648;2023-03-04T03:54:20;2.90;99.90
15386;DHT22;7791;47.246;9.648;2023-03-04T03:56:47;2.90;99.90
15386;DHT22;7791;47.246;9.648;2023-03-04T03:59:13;2.90;99.90
15386;DHT22;7791;47.246;9.648;2023-03-04T04:01:48;2.80;99.90
15386;DHT22;7791;47.246;9.648;2023-03-04T04:04:13;2.70;99.90
15386;DHT22;7791;47.246;9.648;2023-03-04T04:06:39;2.70;99.90
15386;DHT22;7791;47.246;9.648;2023-03-04T04:09:05;2.70;99.90
15386;DHT22;7791;47.246;9.648;2023-03-04T04:11:31;2.60;99.90
15386;DHT22;7791;47.246;9.648;2023-03-04T04:13:58;2.50;99.90
15386;DHT22;7791;47.246;9.648;2023-03-04T04:16:47;2.50;99.90
15386;DHT22;7791;47.246;9.648;2023-03-04T04:19:16;2.40;99.90
15386;DHT22;7791;47.246;9.648;2023-03-04T04:21:42;2.30;99.90
15386;DHT22;7791;47.246;9.648;2023-03-04T04:24:07;2.20;99.90
15386;DHT22;7791;47.246;9.648;2023-03-04T04:26:33;2.00;99.90
15386;DHT22;7791;47.246;9.648;2023-03-04T04:29:01;1.90;99.90
15386;DHT22;7791;47.246;9.648;2023-03-04T04:32:03;1.90;99.90
15386;DHT22;7791;47.246;9.648;2023-03-04T04:34:29;1.80;99.90
15386;DHT22;7791;47.246;9.648;2023-03-04T04:36:55;1.60;99.90
15386;DHT22;7791;47.246;9.648;2023-03-04T04:39:21;1.50;99.90
15386;DHT22;7791;47.246;9.648;2023-03-04T04:41:46;1.40;99.90
15386;DHT22;7791;47.246;9.648;2023-03-04T04:44:14;1.30;99.90
15386;DHT22;7791;47.246;9.648;2023-03-04T04:46:40;1.20;99.90
15386;DHT22;7791;47.246;9.648;2023-03-04T04:49:06;1.20;99.90
15386;DHT22;7791;47.246;9.648;2023-03-04T04:51:33;1.00;99.90
15386;DHT22;7791;47.246;9.648;2023-03-04T04:53:59;1.00;99.90
15386;DHT22;7791;47.246;9.648;2023-03-04T04:56:25;1.00;99.90
15386;DHT22;7791;47.246;9.648;2023-03-04T04:58:52;1.00;99.90
15386;DHT22;7791;47.246;9.648;2023-03-04T05:01:23;1.00;99.90
15386;DHT22;7791;47.246;9.648;2023-03-04T05:03:49;1.10;99.90
15386;DHT22;7791;47.246;9.648;2023-03-04T05:06:15;1.10;99.90
15386;DHT22;7791;47.246;9.648;2023-03-04T05:08:41;1.10;99.90
15386;DHT22;7791;47.246;9.648;2023-03-04T05:11:07;1.00;99.90
15386;DHT22;7791;47.246;9.648;2023-03-04T05:13:34;1.00;99.90
15386;DHT22;7791;47.246;9.648;2023-03-04T05:19:03;0.90;99.90
15386;DHT22;7791;47.246;9.648;2023-03-04T05:21:29;0.80;99.90
15386;DHT22;7791;47.246;9.648;2023-03-04T05:23:55;0.70;99.90
15386;DHT22;7791;47.246;9.648;2023-03-04T05:26:21;0.70;99.90
15386;DHT22;7791;47.246;9.648;2023-03-04T05:28:47;0.60;99.90
15386;DHT22;7791;47.246;9.648;2023-03-04T05:31:17;0.60;99.90
15386;DHT22;7791;47.246;9.648;2023-03-04T05:33:43;0.60;99.90
15386;DHT22;7791;47.246;9.648;2023-03-04T05:36:10;0.50;99.90
15386;DHT22;7791;47.246;9.648;2023-03-04T05:38:36;0.40;99.90
15386;DHT22;7791;47.246;9.648;2023-03-04T05:41:04;0.30;99.90
15386;DHT22;7791;47.246;9.648;2023-03-04T05:43:32;0.30;99.90
15386;DHT22;7791;47.246;9.648;2023-03-04T05:49:03;0.20;99.90
15386;DHT22;7791;47.246;9.648;2023-03-04T05:51:30;0.10;99.90
15386;DHT22;7791;47.246;9.648;2023-03-04T05:53:56;0.00;99.90
15386;DHT22;7791;47.246;9.648;2023-03-04T05:56:22;0.00;99.90
15386;DHT22;7791;47.246;9.648;2023-03-04T05:58:47;-0.10;99.90
15386;DHT22;7791;47.246;9.648;2023-03-04T06:01:28;-0.10;99.90
15386;DHT22;7791;47.246;9.648;2023-03-04T06:03:54;0.00;99.90
15386;DHT22;7791;47.246;9.648;2023-03-04T06:06:20;0.00;99.90
15386;DHT22;7791;47.246;9.648;2023-03-04T06:08:47;0.00;99.90
15386;DHT22;7791;47.246;9.648;2023-03-04T06:11:13;0.00;99.90
15386;DHT22;7791;47.246;9.648;2023-03-04T06:13:39;0.00;99.90
15386;DHT22;7791;47.246;9.648;2023-03-04T06:16:05;-0.10;99.90
15386;DHT22;7791;47.246;9.648;2023-03-04T06:19:01;-0.10;99.90
15386;DHT22;7791;47.246;9.648;2023-03-04T06:21:27;-0.10;99.90
15386;DHT22;7791;47.246;9.648;2023-03-04T06:23:54;-0.10;99.90
15386;DHT22;7791;47.246;9.648;2023-03-04T06:26:20;-0.10;99.90
15386;DHT22;7791;47.246;9.648;2023-03-04T06:28:45;-0.10;99.90
15386;DHT22;7791;47.246;9.648;2023-03-04T06:31:11;0.00;99.90
15386;DHT22;7791;47.246;9.648;2023-03-04T06:33:37;-0.10;99.90
15386;DHT22;7791;47.246;9.648;2023-03-04T06:36:03;-0.10;99.90
15386;DHT22;7791;47.246;9.648;2023-03-04T06:38:29;0.00;99.90
15386;DHT22;7791;47.246;9.648;2023-03-04T06:40:56;0.00;99.90
15386;DHT22;7791;47.246;9.648;2023-03-04T06:43:29;0.00;99.90
15386;DHT22;7791;47.246;9.648;2023-03-04T06:45:55;0.00;99.90
15386;DHT22;7791;47.246;9.648;2023-03-04T06:48:21;0.10;99.90
15386;DHT22;7791;47.246;9.648;2023-03-04T06:50:47;0.20;99.90
15386;DHT22;7791;47.246;9.648;2023-03-04T06:53:13;0.20;99.90
15386;DHT22;7791;47.246;9.648;2023-03-04T06:55:38;0.30;99.90
15386;DHT22;7791;47.246;9.648;2023-03-04T06:58:05;0.40;99.90
15386;DHT22;7791;47.246;9.648;2023-03-04T07:00:31;0.40;99.90
15386;DHT22;7791;47.246;9.648;2023-03-04T07:02:57;0.50;99.90
15386;DHT22;7791;47.246;9.648;2023-03-04T07:05:23;0.60;99.90
15386;DHT22;7791;47.246;9.648;2023-03-04T07:07:49;0.70;99.90
15386;DHT22;7791;47.246;9.648;2023-03-04T07:10:15;0.80;99.90
15386;DHT22;7791;47.246;9.648;2023-03-04T07:12:40;0.90;99.90
15386;DHT22;7791;47.246;9.648;2023-03-04T07:15:09;1.00;99.90
15386;DHT22;7791;47.246;9.648;2023-03-04T07:21:11;1.30;99.90
15386;DHT22;7791;47.246;9.648;2023-03-04T07:23:38;1.40;99.90
15386;DHT22;7791;47.246;9.648;2023-03-04T07:26:04;1.60;99.90
15386;DHT22;7791;47.246;9.648;2023-03-04T07:28:30;1.80;99.90
15386;DHT22;7791;47.246;9.648;2023-03-04T07:31:07;2.00;99.90
15386;DHT22;7791;47.246;9.648;2023-03-04T07:33:32;2.20;99.90
15386;DHT22;7791;47.246;9.648;2023-03-04T07:35:59;3.10;99.90
15386;DHT22;7791;47.246;9.648;2023-03-04T07:38:25;4.30;99.90
15386;DHT22;7791;47.246;9.648;2023-03-04T07:40:54;5.30;99.90
15386;DHT22;7791;47.246;9.648;2023-03-04T07:43:20;5.40;99.90
15386;DHT22;7791;47.246;9.648;2023-03-04T07:45:46;6.40;99.90
15386;DHT22;7791;47.246;9.648;2023-03-04T07:48:29;7.10;99.90
15386;DHT22;7791;47.246;9.648;2023-03-04T07:51:06;7.10;99.90
15386;DHT22;7791;47.246;9.648;2023-03-04T07:53:33;6.80;99.90
15386;DHT22;7791;47.246;9.648;2023-03-04T07:55:59;6.90;99.90
15386;DHT22;7791;47.246;9.648;2023-03-04T07:58:25;7.30;99.90
15386;DHT22;7791;47.246;9.648;2023-03-04T08:00:50;8.30;99.90
15386;DHT22;7791;47.246;9.648;2023-03-04T08:06:25;10.10;99.90
15386;DHT22;7791;47.246;9.648;2023-03-04T08:08:56;11.10;99.90
15386;DHT22;7791;47.246;9.648;2023-03-04T08:11:22;11.90;99.90
15386;DHT22;7791;47.246;9.648;2023-03-04T08:13:48;12.60;99.90
15386;DHT22;7791;47.246;9.648;2023-03-04T08:16:16;13.20;99.90
15386;DHT22;7791;47.246;9.648;2023-03-04T08:21:48;14.40;99.90
15386;DHT22;7791;47.246;9.648;2023-03-04T08:24:14;15.20;99.10
15386;DHT22;7791;47.246;9.648;2023-03-04T08:26:42;15.60;97.40
15386;DHT22;7791;47.246;9.648;2023-03-04T08:29:10;16.20;96.50
15386;DHT22;7791;47.246;9.648;2023-03-04T08:31:36;16.60;94.90
15386;DHT22;7791;47.246;9.648;2023-03-04T08:34:02;16.70;93.40
15386;DHT22;7791;47.246;9.648;2023-03-04T08:36:28;15.30;93.80
15386;DHT22;7791;47.246;9.648;2023-03-04T08:38:55;14.20;95.10
15386;DHT22;7791;47.246;9.648;2023-03-04T08:41:21;14.70;94.90
15386;DHT22;7791;47.246;9.648;2023-03-04T08:43:47;15.30;94.90
15386;DHT22;7791;47.246;9.648;2023-03-04T08:46:13;15.50;94.20
15386;DHT22;7791;47.246;9.648;2023-03-04T08:48:57;15.50;94.40
15386;DHT22;7791;47.246;9.648;2023-03-04T08:51:23;15.70;93.80
15386;DHT22;7791;47.246;9.648;2023-03-04T08:53:48;16.00;93.70
15386;DHT22;7791;47.246;9.648;2023-03-04T08:56:16;16.20;92.60
15386;DHT22;7791;47.246;9.648;2023-03-04T08:58:41;15.90;92.30
15386;DHT22;7791;47.246;9.648;2023-03-04T09:01:14;16.20;92.40
15386;DHT22;7791;47.246;9.648;2023-03-04T09:03:59;16.20;92.80
15386;DHT22;7791;47.246;9.648;2023-03-04T09:06:25;16.30;92.40
15386;DHT22;7791;47.246;9.648;2023-03-04T09:08:50;14.30;94.20
15386;DHT22;7791;47.246;9.648;2023-03-04T09:11:18;13.00;96.80
15386;DHT22;7791;47.246;9.648;2023-03-04T09:13:43;11.80;98.90
15386;DHT22;7791;47.246;9.648;2023-03-04T09:16:10;11.20;99.90
15386;DHT22;7791;47.246;9.648;2023-03-04T09:21:35;10.20;99.90
15386;DHT22;7791;47.246;9.648;2023-03-04T09:24:00;10.00;99.90
15386;DHT22;7791;47.246;9.648;2023-03-04T09:26:28;9.50;99.90
15386;DHT22;7791;47.246;9.648;2023-03-04T09:28:56;9.30;99.90
15386;DHT22;7791;47.246;9.648;2023-03-04T09:31:23;9.20;99.90
15386;DHT22;7791;47.246;9.648;2023-03-04T09:34:10;9.10;99.90
15386;DHT22;7791;47.246;9.648;2023-03-04T09:36:36;9.10;99.90
15386;DHT22;7791;47.246;9.648;2023-03-04T09:39:02;8.90;99.90
15386;DHT22;7791;47.246;9.648;2023-03-04T09:41:36;8.70;99.90
15386;DHT22;7791;47.246;9.648;2023-03-04T09:44:06;9.00;99.90
15386;DHT22;7791;47.246;9.648;2023-03-04T09:46:37;9.70;99.90
15386;DHT22;7791;47.246;9.648;2023-03-04T09:49:05;9.70;99.90
15386;DHT22;7791;47.246;9.648;2023-03-04T09:51:43;10.00;99.90
15386;DHT22;7791;47.246;9.648;2023-03-04T09:54:15;10.00;99.90
15386;DHT22;7791;47.246;9.648;2023-03-04T09:56:44;9.90;99.90
15386;DHT22;7791;47.246;9.648;2023-03-04T09:59:15;10.00;99.90
15386;DHT22;7791;47.246;9.648;2023-03-04T10:01:47;10.00;99.90
15386;DHT22;7791;47.246;9.648;2023-03-04T10:04:29;10.00;99.90
15386;DHT22;7791;47.246;9.648;2023-03-04T10:06:56;9.60;99.90
15386;DHT22;7791;47.246;9.648;2023-03-04T10:09:25;9.60;99.90
15386;DHT22;7791;47.246;9.648;2023-03-04T10:11:59;9.60;99.90
15386;DHT22;7791;47.246;9.648;2023-03-04T10:14:44;9.60;99.90
15386;DHT22;7791;47.246;9.648;2023-03-04T10:17:15;9.90;99.90
15386;DHT22;7791;47.246;9.648;2023-03-04T10:19:54;9.50;99.90
15386;DHT22;7791;47.246;9.648;2023-03-04T10:22:28;9.50;99.90
15386;DHT22;7791;47.246;9.648;2023-03-04T10:24:56;9.60;99.90
15386;DHT22;7791;47.246;9.648;2023-03-04T10:27:25;9.70;99.90
15386;DHT22;7791;47.246;9.648;2023-03-04T10:29:50;9.80;99.90
15386;DHT22;7791;47.246;9.648;2023-03-04T10:32:18;9.70;99.90
15386;DHT22;7791;47.246;9.648;2023-03-04T10:34:45;10.10;99.90
15386;DHT22;7791;47.246;9.648;2023-03-04T10:37:11;9.90;99.90
15386;DHT22;7791;47.246;9.648;2023-03-04T10:39:39;10.30;99.90
15386;DHT22;7791;47.246;9.648;2023-03-04T10:42:09;10.50;99.90
15386;DHT22;7791;47.246;9.648;2023-03-04T10:44:53;10.20;99.90
15386;DHT22;7791;47.246;9.648;2023-03-04T10:47:21;10.20;99.90
15386;DHT22;7791;47.246;9.648;2023-03-04T10:49:52;10.50;99.90
15386;DHT22;7791;47.246;9.648;2023-03-04T10:52:26;11.00;99.90
15386;DHT22;7791;47.246;9.648;2023-03-04T10:54:53;10.60;99.90
15386;DHT22;7791;47.246;9.648;2023-03-04T10:57:23;10.80;99.90
15386;DHT22;7791;47.246;9.648;2023-03-04T10:59:56;10.40;99.90
15386;DHT22;7791;47.246;9.648;2023-03-04T11:02:25;10.10;99.90
15386;DHT22;7791;47.246;9.648;2023-03-04T11:04:53;10.20;99.90
15386;DHT22;7791;47.246;9.648;2023-03-04T11:07:20;10.90;99.90
15386;DHT22;7791;47.246;9.648;2023-03-04T11:09:46;10.70;99.90
15386;DHT22;7791;47.246;9.648;2023-03-04T11:12:20;10.70;99.90
15386;DHT22;7791;47.246;9.648;2023-03-04T11:14:48;11.40;99.90
15386;DHT22;7791;47.246;9.648;2023-03-04T11:17:21;11.20;99.90
15386;DHT22;7791;47.246;9.648;2023-03-04T11:19:51;11.60;99.90
15386;DHT22;7791;47.246;9.648;2023-03-04T11:22:24;11.50;99.90
15386;DHT22;7791;47.246;9.648;2023-03-04T11:24:56;11.70;99.90
15386;DHT22;7791;47.246;9.648;2023-03-04T11:27:33;11.90;99.90
15386;DHT22;7791;47.246;9.648;2023-03-04T11:30:14;10.90;99.90
15386;DHT22;7791;47.246;9.648;2023-03-04T11:32:45;10.60;99.90
15386;DHT22;7791;47.246;9.648;2023-03-04T11:35:17;10.90;99.90
15386;DHT22;7791;47.246;9.648;2023-03-04T11:37:52;11.60;99.90
15386;DHT22;7791;47.246;9.648;2023-03-04T11:40:28;12.00;99.90
15386;DHT22;7791;47.246;9.648;2023-03-04T11:43:02;11.40;99.90
15386;DHT22;7791;47.246;9.648;2023-03-04T11:45:37;11.00;99.90
15386;DHT22;7791;47.246;9.648;2023-03-04T11:48:12;11.40;99.90
15386;DHT22;7791;47.246;9.648;2023-03-04T11:50:46;11.30;99.90
15386;DHT22;7791;47.246;9.648;2023-03-04T11:53:39;11.70;99.90
15386;DHT22;7791;47.246;9.648;2023-03-04T11:56:21;11.40;99.90
15386;DHT22;7791;47.246;9.648;2023-03-04T11:59:02;11.50;99.90
15386;DHT22;7791;47.246;9.648;2023-03-04T12:01:38;11.60;99.90
15386;DHT22;7791;47.246;9.648;2023-03-04T12:04:20;11.10;99.90
15386;DHT22;7791;47.246;9.648;2023-03-04T12:06:59;11.20;99.90
15386;DHT22;7791;47.246;9.648;2023-03-04T12:09:39;11.00;99.90
15386;DHT22;7791;47.246;9.648;2023-03-04T12:12:22;10.70;99.90
15386;DHT22;7791;47.246;9.648;2023-03-04T12:14:56;10.20;99.90
15386;DHT22;7791;47.246;9.648;2023-03-04T12:20:47;10.80;99.90
15386;DHT22;7791;47.246;9.648;2023-03-04T12:23:26;10.90;99.90
15386;DHT22;7791;47.246;9.648;2023-03-04T12:25:59;10.80;99.90
15386;DHT22;7791;47.246;9.648;2023-03-04T12:28:45;10.80;99.90
15386;DHT22;7791;47.246;9.648;2023-03-04T12:31:24;10.80;99.90
15386;DHT22;7791;47.246;9.648;2023-03-04T12:34:05;10.90;99.90
15386;DHT22;7791;47.246;9.648;2023-03-04T12:36:41;10.70;99.90
15386;DHT22;7791;47.246;9.648;2023-03-04T12:39:22;10.70;99.90
15386;DHT22;7791;47.246;9.648;2023-03-04T12:41:56;10.80;99.90
15386;DHT22;7791;47.246;9.648;2023-03-04T12:44:23;10.90;99.90
15386;DHT22;7791;47.246;9.648;2023-03-04T12:47:09;10.40;99.90
15386;DHT22;7791;47.246;9.648;2023-03-04T12:49:46;10.00;99.90
15386;DHT22;7791;47.246;9.648;2023-03-04T12:52:22;10.40;99.90
15386;DHT22;7791;47.246;9.648;2023-03-04T12:54:52;10.50;99.90
15386;DHT22;7791;47.246;9.648;2023-03-04T12:57:23;10.70;99.90
15386;DHT22;7791;47.246;9.648;2023-03-04T12:59:52;11.00;99.90
15386;DHT22;7791;47.246;9.648;2023-03-04T13:02:38;11.00;99.90
15386;DHT22;7791;47.246;9.648;2023-03-04T13:05:21;10.80;99.90
15386;DHT22;7791;47.246;9.648;2023-03-04T13:07:57;10.70;99.90
15386;DHT22;7791;47.246;9.648;2023-03-04T13:10:24;10.20;99.90
15386;DHT22;7791;47.246;9.648;2023-03-04T13:12:51;10.60;99.90
15386;DHT22;7791;47.246;9.648;2023-03-04T13:15:27;10.90;99.90
15386;DHT22;7791;47.246;9.648;2023-03-04T13:17:55;10.70;99.90
15386;DHT22;7791;47.246;9.648;2023-03-04T13:20:24;10.90;99.90
15386;DHT22;7791;47.246;9.648;2023-03-04T13:23:25;11.40;99.90
15386;DHT22;7791;47.246;9.648;2023-03-04T13:26:16;11.60;99.90
15386;DHT22;7791;47.246;9.648;2023-03-04T13:28:44;11.30;99.90
15386;DHT22;7791;47.246;9.648;2023-03-04T13:31:21;11.20;99.90
15386;DHT22;7791;47.246;9.648;2023-03-04T13:33:57;11.20;99.90
15386;DHT22;7791;47.246;9.648;2023-03-04T13:39:28;11.10;99.90
15386;DHT22;7791;47.246;9.648;2023-03-04T13:41:54;11.00;99.90
15386;DHT22;7791;47.246;9.648;2023-03-04T13:47:46;11.10;99.90
15386;DHT22;7791;47.246;9.648;2023-03-04T13:50:37;11.10;99.90
15386;DHT22;7791;47.246;9.648;2023-03-04T13:53:38;10.60;99.90
15386;DHT22;7791;47.246;9.648;2023-03-04T13:59:10;10.60;99.90
15386;DHT22;7791;47.246;9.648;2023-03-04T14:01:48;11.20;99.90
15386;DHT22;7791;47.246;9.648;2023-03-04T14:04:17;11.20;99.90
15386;DHT22;7791;47.246;9.648;2023-03-04T14:06:44;11.20;99.90
15386;DHT22;7791;47.246;9.648;2023-03-04T14:09:12;10.80;99.90
15386;DHT22;7791;47.246;9.648;2023-03-04T14:11:41;10.50;99.90
15386;DHT22;7791;47.246;9.648;2023-03-04T14:14:12;11.00;99.90
15386;DHT22;7791;47.246;9.648;2023-03-04T14:16:45;10.70;99.90
15386;DHT22;7791;47.246;9.648;2023-03-04T14:19:15;10.50;99.90
15386;DHT22;7791;47.246;9.648;2023-03-04T14:21:46;10.30;99.90
15386;DHT22;7791;47.246;9.648;2023-03-04T14:24:14;10.40;99.90
15386;DHT22;7791;47.246;9.648;2023-03-04T14:26:40;10.30;99.90
15386;DHT22;7791;47.246;9.648;2023-03-04T14:29:21;10.60;99.90
15386;DHT22;7791;47.246;9.648;2023-03-04T14:31:48;10.70;99.90
15386;DHT22;7791;47.246;9.648;2023-03-04T14:34:20;10.90;99.90
15386;DHT22;7791;47.246;9.648;2023-03-04T14:36:47;10.60;99.90
15386;DHT22;7791;47.246;9.648;2023-03-04T14:39:30;10.50;99.90
15386;DHT22;7791;47.246;9.648;2023-03-04T14:41:58;10.60;99.90
15386;DHT22;7791;47.246;9.648;2023-03-04T14:44:32;10.80;99.90
15386;DHT22;7791;47.246;9.648;2023-03-04T14:47:05;10.80;99.90
15386;DHT22;7791;47.246;9.648;2023-03-04T14:49:34;10.70;99.90
15386;DHT22;7791;47.246;9.648;2023-03-04T14:52:00;10.60;99.90
15386;DHT22;7791;47.246;9.648;2023-03-04T14:54:30;10.40;99.90
15386;DHT22;7791;47.246;9.648;2023-03-04T14:56:57;10.00;99.90
15386;DHT22;7791;47.246;9.648;2023-03-04T14:59:34;10.00;99.90
15386;DHT22;7791;47.246;9.648;2023-03-04T15:02:19;10.20;99.90
15386;DHT22;7791;47.246;9.648;2023-03-04T15:04:46;9.90;99.90
15386;DHT22;7791;47.246;9.648;2023-03-04T15:07:14;9.80;99.90
15386;DHT22;7791;47.246;9.648;2023-03-04T15:09:41;9.70;99.90
15386;DHT22;7791;47.246;9.648;2023-03-04T15:12:08;9.60;99.90
15386;DHT22;7791;47.246;9.648;2023-03-04T15:14:46;9.50;99.90
15386;DHT22;7791;47.246;9.648;2023-03-04T15:17:28;9.60;99.90
15386;DHT22;7791;47.246;9.648;2023-03-04T15:19:58;9.50;99.90
15386;DHT22;7791;47.246;9.648;2023-03-04T15:22:24;9.50;99.90
15386;DHT22;7791;47.246;9.648;2023-03-04T15:24:50;9.60;99.90
15386;DHT22;7791;47.246;9.648;2023-03-04T15:27:16;9.70;99.90
15386;DHT22;7791;47.246;9.648;2023-03-04T15:29:45;9.70;99.90
15386;DHT22;7791;47.246;9.648;2023-03-04T15:32:11;9.50;99.90
15386;DHT22;7791;47.246;9.648;2023-03-04T15:34:37;9.50;99.90
15386;DHT22;7791;47.246;9.648;2023-03-04T15:37:02;9.40;99.90
15386;DHT22;7791;47.246;9.648;2023-03-04T15:39:28;9.30;99.90
15386;DHT22;7791;47.246;9.648;2023-03-04T15:41:54;9.20;99.90
15386;DHT22;7791;47.246;9.648;2023-03-04T15:44:20;9.20;99.90
15386;DHT22;7791;47.246;9.648;2023-03-04T15:46:47;9.20;99.90
15386;DHT22;7791;47.246;9.648;2023-03-04T15:49:12;9.20;99.90
15386;DHT22;7791;47.246;9.648;2023-03-04T15:51:38;9.20;99.90
15386;DHT22;7791;47.246;9.648;2023-03-04T15:54:08;9.10;99.90
15386;DHT22;7791;47.246;9.648;2023-03-04T15:56:35;9.00;99.90
15386;DHT22;7791;47.246;9.648;2023-03-04T15:59:03;8.90;99.90
15386;DHT22;7791;47.246;9.648;2023-03-04T16:01:30;8.80;99.90
15386;DHT22;7791;47.246;9.648;2023-03-04T16:03:58;8.80;99.90
15386;DHT22;7791;47.246;9.648;2023-03-04T16:06:26;8.80;99.90
15386;DHT22;7791;47.246;9.648;2023-03-04T16:08:56;8.80;99.90
15386;DHT22;7791;47.246;9.648;2023-03-04T16:11:25;8.70;99.90
15386;DHT22;7791;47.246;9.648;2023-03-04T16:13:51;8.50;99.90
15386;DHT22;7791;47.246;9.648;2023-03-04T16:16:18;8.50;99.90
15386;DHT22;7791;47.246;9.648;2023-03-04T16:18:43;8.40;99.90
15386;DHT22;7791;47.246;9.648;2023-03-04T16:21:13;8.40;99.90
15386;DHT22;7791;47.246;9.648;2023-03-04T16:23:41;8.50;99.90
15386;DHT22;7791;47.246;9.648;2023-03-04T16:26:13;8.30;99.90
15386;DHT22;7791;47.246;9.648;2023-03-04T16:28:40;8.30;99.90
15386;DHT22;7791;47.246;9.648;2023-03-04T16:31:05;8.10;99.90
15386;DHT22;7791;47.246;9.648;2023-03-04T16:33:31;8.00;99.90
15386;DHT22;7791;47.246;9.648;2023-03-04T16:35:57;7.90;99.90
15386;DHT22;7791;47.246;9.648;2023-03-04T16:38:26;7.70;99.90
15386;DHT22;7791;47.246;9.648;2023-03-04T16:40:53;7.40;99.90
15386;DHT22;7791;47.246;9.648;2023-03-04T16:43:20;7.30;99.90
15386;DHT22;7791;47.246;9.648;2023-03-04T16:45:46;7.20;99.90
15386;DHT22;7791;47.246;9.648;2023-03-04T16:48:11;7.00;99.90
15386;DHT22;7791;47.246;9.648;2023-03-04T16:50:38;6.80;99.90